sensor_id;sensor_type;location;lat;lon;timestamp;P1;durP1;ratioP1;P2;durP2;ratioP2
25359;SDS011;13311;51.386;0.016;2022-11-20T00:01:44;13.93;;;6.80;;
25359;SDS011;13311;51.386;0.016;2022-11-20T00:06:44;17.27;;;7.15;;
25359;SDS011;13311;51.386;0.016;2022-11-20T00:11:46;11.93;;;6.65;;
25359;SDS011;13311;51.386;0.016;2022-11-20T00:16:47;14.63;;;6.93;;
25359;SDS011;13311;51.386;0.016;2022-11-20T00:21:48;12.50;;;6.30;;
25359;SDS011;13311;51.386;0.016;2022-11-20T00:26:51;15.13;;;5.82;;
25359;SDS011;13311;51.386;0.016;2022-11-20T00:31:51;13.65;;;6.35;;
25359;SDS011;13311;51.386;0.016;2022-11-20T00:36:52;14.02;;;6.03;;
25359;SDS011;13311;51.386;0.016;2022-11-20T00:41:53;12.40;;;5.95;;
25359;SDS011;13311;51.386;0.016;2022-11-20T00:46:53;14.90;;;6.40;;
25359;SDS011;13311;51.386;0.016;2022-11-20T00:51:54;9.45;;;5.60;;
25359;SDS011;13311;51.386;0.016;2022-11-20T00:56:55;14.75;;;5.80;;
25359;SDS011;13311;51.386;0.016;2022-11-20T01:01:55;15.38;;;5.88;;
25359;SDS011;13311;51.386;0.016;2022-11-20T01:06:56;15.43;;;6.40;;
25359;SDS011;13311;51.386;0.016;2022-11-20T01:11:57;13.02;;;6.35;;
25359;SDS011;13311;51.386;0.016;2022-11-20T01:16:59;12.07;;;5.53;;
25359;SDS011;13311;51.386;0.016;2022-11-20T01:21:59;13.82;;;6.30;;
25359;SDS011;13311;51.386;0.016;2022-11-20T01:27:00;12.05;;;5.50;;
25359;SDS011;13311;51.386;0.016;2022-11-20T01:32:01;13.65;;;6.50;;
25359;SDS011;13311;51.386;0.016;2022-11-20T01:37:01;11.98;;;6.10;;
25359;SDS011;13311;51.386;0.016;2022-11-20T01:42:02;15.57;;;6.13;;
25359;SDS011;13311;51.386;0.016;2022-11-20T01:47:32;11.20;;;5.38;;
25359;SDS011;13311;51.386;0.016;2022-11-20T01:52:42;11.98;;;4.22;;
25359;SDS011;13311;51.386;0.016;2022-11-20T01:57:52;8.73;;;4.25;;
25359;SDS011;13311;51.386;0.016;2022-11-20T02:02:58;14.13;;;4.85;;
25359;SDS011;13311;51.386;0.016;2022-11-20T02:08:04;9.35;;;3.92;;
25359;SDS011;13311;51.386;0.016;2022-11-20T02:13:07;9.38;;;3.70;;
25359;SDS011;13311;51.386;0.016;2022-11-20T02:18:27;7.30;;;3.88;;
25359;SDS011;13311;51.386;0.016;2022-11-20T02:28:40;7.15;;;4.25;;
25359;SDS011;13311;51.386;0.016;2022-11-20T02:33:41;13.25;;;4.40;;
25359;SDS011;13311;51.386;0.016;2022-11-20T02:38:41;8.63;;;4.10;;
25359;SDS011;13311;51.386;0.016;2022-11-20T02:43:43;8.80;;;3.40;;
25359;SDS011;13311;51.386;0.016;2022-11-20T02:48:43;21.58;;;4.07;;
25359;SDS011;13311;51.386;0.016;2022-11-20T02:53:44;6.03;;;2.72;;
25359;SDS011;13311;51.386;0.016;2022-11-20T02:58:45;9.90;;;2.88;;
25359;SDS011;13311;51.386;0.016;2022-11-20T03:03:46;7.80;;;2.80;;
25359;SDS011;13311;51.386;0.016;2022-11-20T03:08:48;8.05;;;2.53;;
25359;SDS011;13311;51.386;0.016;2022-11-20T03:13:49;7.28;;;2.20;;
25359;SDS011;13311;51.386;0.016;2022-11-20T03:18:51;7.13;;;1.92;;
25359;SDS011;13311;51.386;0.016;2022-11-20T03:23:53;6.05;;;1.55;;
25359;SDS011;13311;51.386;0.016;2022-11-20T03:28:55;5.15;;;2.00;;
25359;SDS011;13311;51.386;0.016;2022-11-20T03:33:58;8.93;;;2.28;;
25359;SDS011;13311;51.386;0.016;2022-11-20T03:39:00;7.97;;;1.83;;
25359;SDS011;13311;51.386;0.016;2022-11-20T03:44:01;6.20;;;1.77;;
25359;SDS011;13311;51.386;0.016;2022-11-20T03:49:04;7.88;;;2.08;;
25359;SDS011;13311;51.386;0.016;2022-11-20T03:54:06;10.45;;;1.92;;
25359;SDS011;13311;51.386;0.016;2022-11-20T03:59:09;9.55;;;2.00;;
25359;SDS011;13311;51.386;0.016;2022-11-20T04:04:10;6.93;;;2.17;;
25359;SDS011;13311;51.386;0.016;2022-11-20T04:09:11;6.10;;;2.17;;
25359;SDS011;13311;51.386;0.016;2022-11-20T04:14:12;7.40;;;2.22;;
25359;SDS011;13311;51.386;0.016;2022-11-20T04:19:15;8.85;;;2.40;;
25359;SDS011;13311;51.386;0.016;2022-11-20T04:24:16;8.63;;;2.67;;
25359;SDS011;13311;51.386;0.016;2022-11-20T04:29:17;14.07;;;3.22;;
25359;SDS011;13311;51.386;0.016;2022-11-20T04:34:18;7.20;;;2.85;;
25359;SDS011;13311;51.386;0.016;2022-11-20T04:39:18;9.07;;;2.33;;
25359;SDS011;13311;51.386;0.016;2022-11-20T04:44:19;7.78;;;2.42;;
25359;SDS011;13311;51.386;0.016;2022-11-20T04:49:20;6.93;;;1.80;;
25359;SDS011;13311;51.386;0.016;2022-11-20T04:54:20;6.90;;;2.35;;
25359;SDS011;13311;51.386;0.016;2022-11-20T04:59:21;6.93;;;2.53;;
25359;SDS011;13311;51.386;0.016;2022-11-20T05:04:22;8.13;;;2.67;;
25359;SDS011;13311;51.386;0.016;2022-11-20T05:09:23;11.82;;;2.67;;
25359;SDS011;13311;51.386;0.016;2022-11-20T05:14:23;9.68;;;2.58;;
25359;SDS011;13311;51.386;0.016;2022-11-20T05:19:24;11.13;;;2.13;;
25359;SDS011;13311;51.386;0.016;2022-11-20T05:24:25;8.70;;;2.97;;
25359;SDS011;13311;51.386;0.016;2022-11-20T05:29:25;9.52;;;2.60;;
25359;SDS011;13311;51.386;0.016;2022-11-20T05:34:26;10.02;;;2.40;;
25359;SDS011;13311;51.386;0.016;2022-11-20T05:39:27;4.85;;;2.17;;
25359;SDS011;13311;51.386;0.016;2022-11-20T05:44:27;4.78;;;2.13;;
25359;SDS011;13311;51.386;0.016;2022-11-20T05:49:28;6.25;;;1.58;;
25359;SDS011;13311;51.386;0.016;2022-11-20T05:54:29;5.25;;;2.28;;
25359;SDS011;13311;51.386;0.016;2022-11-20T05:59:29;2.75;;;1.83;;
25359;SDS011;13311;51.386;0.016;2022-11-20T06:04:30;5.57;;;2.10;;
25359;SDS011;13311;51.386;0.016;2022-11-20T06:09:31;4.68;;;2.05;;
25359;SDS011;13311;51.386;0.016;2022-11-20T06:14:32;4.25;;;1.70;;
25359;SDS011;13311;51.386;0.016;2022-11-20T06:19:33;4.50;;;2.17;;
25359;SDS011;13311;51.386;0.016;2022-11-20T06:24:34;5.32;;;2.35;;
25359;SDS011;13311;51.386;0.016;2022-11-20T06:29:35;4.60;;;1.73;;
25359;SDS011;13311;51.386;0.016;2022-11-20T06:34:36;8.73;;;2.85;;
25359;SDS011;13311;51.386;0.016;2022-11-20T06:39:37;4.70;;;2.30;;
25359;SDS011;13311;51.386;0.016;2022-11-20T06:44:37;5.05;;;2.10;;
25359;SDS011;13311;51.386;0.016;2022-11-20T06:49:38;8.27;;;2.75;;
25359;SDS011;13311;51.386;0.016;2022-11-20T06:54:39;4.07;;;1.92;;
25359;SDS011;13311;51.386;0.016;2022-11-20T06:59:39;4.75;;;1.67;;
25359;SDS011;13311;51.386;0.016;2022-11-20T07:04:40;6.35;;;2.08;;
25359;SDS011;13311;51.386;0.016;2022-11-20T07:09:41;4.30;;;1.88;;
25359;SDS011;13311;51.386;0.016;2022-11-20T07:14:42;4.60;;;1.50;;
25359;SDS011;13311;51.386;0.016;2022-11-20T07:19:42;2.35;;;1.27;;
25359;SDS011;13311;51.386;0.016;2022-11-20T07:24:43;4.57;;;1.40;;
25359;SDS011;13311;51.386;0.016;2022-11-20T07:29:44;5.10;;;1.63;;
25359;SDS011;13311;51.386;0.016;2022-11-20T07:34:45;3.15;;;1.17;;
25359;SDS011;13311;51.386;0.016;2022-11-20T07:39:46;1.77;;;1.20;;
25359;SDS011;13311;51.386;0.016;2022-11-20T07:44:50;7.15;;;1.60;;
25359;SDS011;13311;51.386;0.016;2022-11-20T07:49:56;1.98;;;0.90;;
25359;SDS011;13311;51.386;0.016;2022-11-20T07:54:57;1.33;;;0.90;;
25359;SDS011;13311;51.386;0.016;2022-11-20T07:59:57;2.97;;;1.63;;
25359;SDS011;13311;51.386;0.016;2022-11-20T08:04:59;1.45;;;0.90;;
25359;SDS011;13311;51.386;0.016;2022-11-20T08:09:59;1.33;;;0.90;;
25359;SDS011;13311;51.386;0.016;2022-11-20T08:15:00;1.27;;;0.90;;
25359;SDS011;13311;51.386;0.016;2022-11-20T08:20:05;4.30;;;1.05;;
25359;SDS011;13311;51.386;0.016;2022-11-20T08:25:07;2.15;;;0.70;;
25359;SDS011;13311;51.386;0.016;2022-11-20T08:30:09;3.00;;;1.10;;
25359;SDS011;13311;51.386;0.016;2022-11-20T08:35:10;1.13;;;0.88;;
25359;SDS011;13311;51.386;0.016;2022-11-20T08:40:11;2.80;;;0.90;;
25359;SDS011;13311;51.386;0.016;2022-11-20T08:45:12;2.75;;;1.20;;
25359;SDS011;13311;51.386;0.016;2022-11-20T08:50:13;1.52;;;1.10;;
25359;SDS011;13311;51.386;0.016;2022-11-20T08:55:16;1.73;;;1.30;;
25359;SDS011;13311;51.386;0.016;2022-11-20T09:00:20;2.20;;;1.23;;
25359;SDS011;13311;51.386;0.016;2022-11-20T09:05:20;2.80;;;2.08;;
25359;SDS011;13311;51.386;0.016;2022-11-20T09:10:21;3.72;;;2.35;;
25359;SDS011;13311;51.386;0.016;2022-11-20T09:15:22;3.15;;;2.38;;
25359;SDS011;13311;51.386;0.016;2022-11-20T09:20:25;4.30;;;1.95;;
25359;SDS011;13311;51.386;0.016;2022-11-20T09:25:28;4.45;;;1.75;;
25359;SDS011;13311;51.386;0.016;2022-11-20T09:30:32;3.10;;;2.17;;
25359;SDS011;13311;51.386;0.016;2022-11-20T09:35:33;4.57;;;2.47;;
25359;SDS011;13311;51.386;0.016;2022-11-20T09:40:34;4.93;;;3.08;;
25359;SDS011;13311;51.386;0.016;2022-11-20T09:56:33;7.35;;;2.72;;
25359;SDS011;13311;51.386;0.016;2022-11-20T10:01:37;6.60;;;2.78;;
25359;SDS011;13311;51.386;0.016;2022-11-20T10:28:43;6.10;;;2.38;;
25359;SDS011;13311;51.386;0.016;2022-11-20T10:34:03;8.68;;;2.78;;
25359;SDS011;13311;51.386;0.016;2022-11-20T10:39:16;8.95;;;2.58;;
25359;SDS011;13311;51.386;0.016;2022-11-20T10:44:34;3.63;;;1.77;;
25359;SDS011;13311;51.386;0.016;2022-11-20T10:50:16;3.63;;;1.70;;
25359;SDS011;13311;51.386;0.016;2022-11-20T10:55:33;5.82;;;2.08;;
25359;SDS011;13311;51.386;0.016;2022-11-20T11:00:44;7.35;;;2.42;;
25359;SDS011;13311;51.386;0.016;2022-11-20T11:05:48;8.90;;;2.22;;
25359;SDS011;13311;51.386;0.016;2022-11-20T11:10:56;7.50;;;2.20;;
25359;SDS011;13311;51.386;0.016;2022-11-20T11:16:01;9.32;;;2.78;;
25359;SDS011;13311;51.386;0.016;2022-11-20T11:21:04;7.32;;;2.83;;
25359;SDS011;13311;51.386;0.016;2022-11-20T11:26:06;6.50;;;2.05;;
25359;SDS011;13311;51.386;0.016;2022-11-20T11:31:23;12.50;;;3.42;;
25359;SDS011;13311;51.386;0.016;2022-11-20T11:36:28;12.25;;;2.60;;
25359;SDS011;13311;51.386;0.016;2022-11-20T11:41:32;14.40;;;2.30;;
25359;SDS011;13311;51.386;0.016;2022-11-20T11:46:37;16.80;;;3.05;;
25359;SDS011;13311;51.386;0.016;2022-11-20T11:51:41;9.48;;;3.33;;
25359;SDS011;13311;51.386;0.016;2022-11-20T11:57:00;17.95;;;3.40;;
25359;SDS011;13311;51.386;0.016;2022-11-20T12:07:25;10.38;;;2.90;;
25359;SDS011;13311;51.386;0.016;2022-11-20T12:12:44;15.90;;;3.13;;
25359;SDS011;13311;51.386;0.016;2022-11-20T12:17:49;10.80;;;3.15;;
25359;SDS011;13311;51.386;0.016;2022-11-20T12:23:00;7.97;;;2.97;;
25359;SDS011;13311;51.386;0.016;2022-11-20T12:28:19;11.45;;;3.20;;
25359;SDS011;13311;51.386;0.016;2022-11-20T13:06:42;17.20;;;3.35;;
25359;SDS011;13311;51.386;0.016;2022-11-20T13:11:50;14.75;;;3.67;;
25359;SDS011;13311;51.386;0.016;2022-11-20T13:17:05;9.93;;;2.90;;
25359;SDS011;13311;51.386;0.016;2022-11-20T13:22:23;9.23;;;2.55;;
25359;SDS011;13311;51.386;0.016;2022-11-20T13:27:29;13.18;;;2.67;;
25359;SDS011;13311;51.386;0.016;2022-11-20T13:32:30;10.80;;;2.78;;
25359;SDS011;13311;51.386;0.016;2022-11-20T13:37:37;16.13;;;3.50;;
25359;SDS011;13311;51.386;0.016;2022-11-20T13:42:39;15.82;;;3.00;;
25359;SDS011;13311;51.386;0.016;2022-11-20T13:47:48;19.23;;;4.20;;
25359;SDS011;13311;51.386;0.016;2022-11-20T13:58:20;15.10;;;3.15;;
25359;SDS011;13311;51.386;0.016;2022-11-20T14:03:50;14.38;;;2.83;;
25359;SDS011;13311;51.386;0.016;2022-11-20T14:08:52;13.18;;;2.90;;
25359;SDS011;13311;51.386;0.016;2022-11-20T14:24:23;9.88;;;3.55;;
25359;SDS011;13311;51.386;0.016;2022-11-20T14:29:28;12.98;;;3.90;;
25359;SDS011;13311;51.386;0.016;2022-11-20T14:34:40;12.57;;;4.22;;
25359;SDS011;13311;51.386;0.016;2022-11-20T14:40:01;11.57;;;3.03;;
25359;SDS011;13311;51.386;0.016;2022-11-20T14:45:02;13.65;;;4.18;;
25359;SDS011;13311;51.386;0.016;2022-11-20T14:50:19;14.35;;;3.63;;
25359;SDS011;13311;51.386;0.016;2022-11-20T14:55:32;12.77;;;2.97;;
25359;SDS011;13311;51.386;0.016;2022-11-20T15:00:36;13.32;;;3.83;;
25359;SDS011;13311;51.386;0.016;2022-11-20T15:05:47;12.88;;;4.03;;
25359;SDS011;13311;51.386;0.016;2022-11-20T15:10:50;14.75;;;4.32;;
25359;SDS011;13311;51.386;0.016;2022-11-20T15:15:55;14.57;;;4.13;;
25359;SDS011;13311;51.386;0.016;2022-11-20T15:20:58;16.42;;;3.55;;
25359;SDS011;13311;51.386;0.016;2022-11-20T15:26:04;12.52;;;4.05;;
25359;SDS011;13311;51.386;0.016;2022-11-20T15:31:06;17.65;;;4.38;;
25359;SDS011;13311;51.386;0.016;2022-11-20T15:36:11;19.65;;;4.53;;
25359;SDS011;13311;51.386;0.016;2022-11-20T15:41:12;24.85;;;4.55;;
25359;SDS011;13311;51.386;0.016;2022-11-20T15:46:13;20.30;;;4.47;;
25359;SDS011;13311;51.386;0.016;2022-11-20T15:56:34;19.83;;;5.13;;
25359;SDS011;13311;51.386;0.016;2022-11-20T16:01:35;15.07;;;4.22;;
25359;SDS011;13311;51.386;0.016;2022-11-20T16:06:36;11.18;;;4.47;;
25359;SDS011;13311;51.386;0.016;2022-11-20T16:11:37;13.85;;;4.53;;
25359;SDS011;13311;51.386;0.016;2022-11-20T16:16:38;31.73;;;6.35;;
25359;SDS011;13311;51.386;0.016;2022-11-20T16:21:40;18.75;;;4.75;;
25359;SDS011;13311;51.386;0.016;2022-11-20T16:26:41;12.68;;;4.93;;
25359;SDS011;13311;51.386;0.016;2022-11-20T16:31:42;18.75;;;6.50;;
25359;SDS011;13311;51.386;0.016;2022-11-20T16:36:43;13.18;;;4.00;;
25359;SDS011;13311;51.386;0.016;2022-11-20T16:41:44;19.65;;;4.38;;
25359;SDS011;13311;51.386;0.016;2022-11-20T16:46:45;17.33;;;4.30;;
25359;SDS011;13311;51.386;0.016;2022-11-20T16:51:46;10.60;;;3.53;;
25359;SDS011;13311;51.386;0.016;2022-11-20T16:56:46;16.38;;;5.05;;
25359;SDS011;13311;51.386;0.016;2022-11-20T17:01:49;11.73;;;3.65;;
25359;SDS011;13311;51.386;0.016;2022-11-20T17:06:50;21.13;;;4.63;;
25359;SDS011;13311;51.386;0.016;2022-11-20T17:11:51;13.80;;;3.50;;
25359;SDS011;13311;51.386;0.016;2022-11-20T17:16:51;12.38;;;4.38;;
25359;SDS011;13311;51.386;0.016;2022-11-20T17:21:52;16.63;;;4.68;;
25359;SDS011;13311;51.386;0.016;2022-11-20T17:26:53;13.93;;;3.85;;
25359;SDS011;13311;51.386;0.016;2022-11-20T17:31:53;16.92;;;3.90;;
25359;SDS011;13311;51.386;0.016;2022-11-20T17:36:54;13.75;;;3.05;;
25359;SDS011;13311;51.386;0.016;2022-11-20T17:41:55;10.63;;;3.47;;
25359;SDS011;13311;51.386;0.016;2022-11-20T17:47:14;13.57;;;3.50;;
25359;SDS011;13311;51.386;0.016;2022-11-20T17:52:15;14.18;;;3.70;;
25359;SDS011;13311;51.386;0.016;2022-11-20T17:57:16;12.20;;;3.35;;
25359;SDS011;13311;51.386;0.016;2022-11-20T18:02:35;7.80;;;2.33;;
25359;SDS011;13311;51.386;0.016;2022-11-20T18:07:36;12.20;;;4.10;;
25359;SDS011;13311;51.386;0.016;2022-11-20T18:12:39;11.27;;;2.63;;
25359;SDS011;13311;51.386;0.016;2022-11-20T18:17:40;9.45;;;2.58;;
25359;SDS011;13311;51.386;0.016;2022-11-20T18:22:41;10.55;;;3.35;;
25359;SDS011;13311;51.386;0.016;2022-11-20T18:27:41;11.02;;;3.15;;
25359;SDS011;13311;51.386;0.016;2022-11-20T18:32:42;7.65;;;3.13;;
25359;SDS011;13311;51.386;0.016;2022-11-20T18:37:43;6.57;;;2.75;;
25359;SDS011;13311;51.386;0.016;2022-11-20T18:42:44;10.75;;;2.95;;
25359;SDS011;13311;51.386;0.016;2022-11-20T18:48:03;8.82;;;2.80;;
25359;SDS011;13311;51.386;0.016;2022-11-20T18:53:04;7.18;;;2.75;;
25359;SDS011;13311;51.386;0.016;2022-11-20T18:58:05;7.78;;;2.47;;
25359;SDS011;13311;51.386;0.016;2022-11-20T19:03:05;9.02;;;2.75;;
25359;SDS011;13311;51.386;0.016;2022-11-20T19:08:06;8.55;;;2.80;;
25359;SDS011;13311;51.386;0.016;2022-11-20T19:13:07;6.43;;;2.15;;
25359;SDS011;13311;51.386;0.016;2022-11-20T19:18:07;7.47;;;2.65;;
25359;SDS011;13311;51.386;0.016;2022-11-20T19:23:08;9.98;;;3.38;;
25359;SDS011;13311;51.386;0.016;2022-11-20T19:28:09;7.38;;;2.60;;
25359;SDS011;13311;51.386;0.016;2022-11-20T19:33:10;8.15;;;2.58;;
25359;SDS011;13311;51.386;0.016;2022-11-20T19:38:11;6.57;;;2.90;;
25359;SDS011;13311;51.386;0.016;2022-11-20T19:43:11;6.03;;;3.10;;
25359;SDS011;13311;51.386;0.016;2022-11-20T19:48:12;10.82;;;3.25;;
25359;SDS011;13311;51.386;0.016;2022-11-20T19:53:13;9.82;;;3.95;;
25359;SDS011;13311;51.386;0.016;2022-11-20T19:58:13;11.65;;;4.28;;
25359;SDS011;13311;51.386;0.016;2022-11-20T20:03:14;7.82;;;3.35;;
25359;SDS011;13311;51.386;0.016;2022-11-20T20:08:15;13.25;;;3.45;;
25359;SDS011;13311;51.386;0.016;2022-11-20T20:13:15;8.05;;;3.17;;
25359;SDS011;13311;51.386;0.016;2022-11-20T20:18:16;9.50;;;3.17;;
25359;SDS011;13311;51.386;0.016;2022-11-20T20:23:17;7.90;;;3.13;;
25359;SDS011;13311;51.386;0.016;2022-11-20T20:28:17;9.50;;;2.95;;
25359;SDS011;13311;51.386;0.016;2022-11-20T20:33:18;8.65;;;2.60;;
25359;SDS011;13311;51.386;0.016;2022-11-20T20:38:19;6.03;;;2.30;;
25359;SDS011;13311;51.386;0.016;2022-11-20T20:43:21;6.55;;;2.85;;
25359;SDS011;13311;51.386;0.016;2022-11-20T20:48:22;9.70;;;3.53;;
25359;SDS011;13311;51.386;0.016;2022-11-20T20:53:24;11.57;;;2.95;;
25359;SDS011;13311;51.386;0.016;2022-11-20T20:58:26;9.57;;;2.83;;
25359;SDS011;13311;51.386;0.016;2022-11-20T21:03:30;9.30;;;3.63;;
25359;SDS011;13311;51.386;0.016;2022-11-20T21:08:32;8.80;;;3.00;;
25359;SDS011;13311;51.386;0.016;2022-11-20T21:13:34;10.35;;;3.00;;
25359;SDS011;13311;51.386;0.016;2022-11-20T21:18:35;11.02;;;2.65;;
25359;SDS011;13311;51.386;0.016;2022-11-20T21:23:36;6.50;;;2.08;;
25359;SDS011;13311;51.386;0.016;2022-11-20T21:28:38;9.02;;;2.88;;
25359;SDS011;13311;51.386;0.016;2022-11-20T21:33:42;10.82;;;3.28;;
25359;SDS011;13311;51.386;0.016;2022-11-20T21:38:45;7.40;;;2.63;;
25359;SDS011;13311;51.386;0.016;2022-11-20T21:43:47;8.07;;;2.85;;
25359;SDS011;13311;51.386;0.016;2022-11-20T21:48:50;10.07;;;3.20;;
25359;SDS011;13311;51.386;0.016;2022-11-20T21:53:51;13.27;;;2.95;;
25359;SDS011;13311;51.386;0.016;2022-11-20T21:58:54;13.80;;;3.45;;
25359;SDS011;13311;51.386;0.016;2022-11-20T22:03:56;7.25;;;3.10;;
25359;SDS011;13311;51.386;0.016;2022-11-20T22:09:00;7.05;;;3.15;;
25359;SDS011;13311;51.386;0.016;2022-11-20T22:14:01;6.30;;;2.38;;
25359;SDS011;13311;51.386;0.016;2022-11-20T22:19:21;7.63;;;2.22;;
25359;SDS011;13311;51.386;0.016;2022-11-20T22:24:22;11.00;;;3.40;;
25359;SDS011;13311;51.386;0.016;2022-11-20T22:29:23;7.13;;;2.55;;
25359;SDS011;13311;51.386;0.016;2022-11-20T22:34:24;14.30;;;3.50;;
25359;SDS011;13311;51.386;0.016;2022-11-20T22:39:25;6.57;;;2.50;;
25359;SDS011;13311;51.386;0.016;2022-11-20T22:44:25;10.48;;;2.95;;
25359;SDS011;13311;51.386;0.016;2022-11-20T22:49:26;12.82;;;3.00;;
25359;SDS011;13311;51.386;0.016;2022-11-20T22:54:26;7.38;;;2.63;;
25359;SDS011;13311;51.386;0.016;2022-11-20T22:59:27;11.13;;;3.22;;
25359;SDS011;13311;51.386;0.016;2022-11-20T23:04:28;9.48;;;2.53;;
25359;SDS011;13311;51.386;0.016;2022-11-20T23:09:28;8.95;;;2.20;;
25359;SDS011;13311;51.386;0.016;2022-11-20T23:14:29;9.82;;;2.90;;
25359;SDS011;13311;51.386;0.016;2022-11-20T23:19:30;10.55;;;2.40;;
25359;SDS011;13311;51.386;0.016;2022-11-20T23:24:30;10.13;;;2.05;;
25359;SDS011;13311;51.386;0.016;2022-11-20T23:29:31;8.75;;;2.35;;
25359;SDS011;13311;51.386;0.016;2022-11-20T23:34:32;10.20;;;2.33;;
25359;SDS011;13311;51.386;0.016;2022-11-20T23:39:32;9.43;;;2.38;;
25359;SDS011;13311;51.386;0.016;2022-11-20T23:44:33;8.80;;;2.22;;
25359;SDS011;13311;51.386;0.016;2022-11-20T23:49:34;12.35;;;2.63;;
25359;SDS011;13311;51.386;0.016;2022-11-20T23:54:35;18.83;;;3.22;;
25359;SDS011;13311;51.386;0.016;2022-11-20T23:59:35;15.18;;;2.50;;
